Time;durP1;ratioP1;P1;durP2;ratioP2;P2;SDS_P1;SDS_P2;PMS_P1;PMS_P2;Temp;Humidity;BMP_temperature;BMP_pressure;BME280_temperature;BME280_humidity;BME280_pressure;Samples;Min_cycle;Max_cycle;Signal;HPM_P1;HPM_P2
2023/10/06 00:29:18;;;;;;;14.10;9.80;;;11.20;99.90;;;;;;6092170;23;20225;-86
2023/10/06 00:33:38;;;;;;;13.03;8.67;;;11.20;99.90;;;;;;6110818;23;20496;-85
2023/10/06 01:09:37;;;;;;;11.17;8.30;;;10.70;99.90;;;;;;5973929;23;20273;-85
2023/10/06 02:45:56;;;;;;;9.70;7.20;;;10.70;99.90;;;;;;6125026;23;20154;-88
2023/10/06 04:42:14;;;;;;;19.80;13.07;;;10.70;99.90;;;;;;5801192;24;20300;-88
2023/10/06 05:07:57;;;;;;;18.20;12.63;;;10.50;99.90;;;;;;5818578;24;20186;-86
2023/10/06 05:33:10;;;;;;;19.33;12.90;;;10.60;99.90;;;;;;5770304;24;20378;-84
2023/10/06 06:04:09;;;;;;;22.00;14.27;;;11.00;99.90;;;;;;5942062;23;20195;-83
2023/10/06 06:08:24;;;;;;;23.27;13.80;;;11.00;99.90;;;;;;5847677;23;20297;-84
2023/10/06 06:33:47;;;;;;;26.17;15.57;;;11.60;99.90;;;;;;5573236;25;20635;-87
2023/10/06 07:34:39;;;;;;;26.53;18.40;;;12.00;99.90;;;;;;5766039;24;20372;-85
2023/10/06 08:10:15;;;;;;;24.80;16.50;;;12.50;99.90;;;;;;5737244;24;20672;-84
2023/10/06 08:31:04;;;;;;;28.23;20.50;;;12.90;99.90;;;;;;5958407;23;20216;-83
2023/10/06 08:56:14;;;;;;;19.80;14.43;;;13.40;99.90;;;;;;5833892;24;20616;-85
2023/10/06 09:52:02;;;;;;;13.20;9.23;;;14.40;99.90;;;;;;5691021;24;21000;-84
2023/10/06 10:22:29;;;;;;;7.93;5.33;;;14.70;99.70;;;;;;5682538;24;20204;-83
2023/10/06 11:03:16;;;;;;;8.83;5.57;;;15.40;98.20;;;;;;5907888;23;20449;-84
2023/10/06 11:38:52;;;;;;;8.97;5.80;;;16.20;89.80;;;;;;6009205;23;20216;-88
2023/10/06 12:13:45;;;;;;;12.53;6.00;;;16.10;89.90;;;;;;5771653;24;20610;-88
2023/10/06 12:34:43;;;;;;;6.40;4.40;;;17.00;82.00;;;;;;5874143;23;20748;-87
2023/10/06 13:04:29;;;;;;;7.77;3.37;;;16.80;81.70;;;;;;5743255;24;20459;-86
2023/10/06 13:40:17;;;;;;;6.60;3.13;;;17.10;78.40;;;;;;5584350;25;20616;-86
2023/10/06 13:55:29;;;;;;;5.40;2.80;;;17.00;79.00;;;;;;5655412;24;20237;-86
2023/10/06 14:21:05;;;;;;;3.93;2.87;;;16.90;78.90;;;;;;5665719;24;20194;-84
2023/10/06 14:46:34;;;;;;;5.80;2.90;;;16.20;82.20;;;;;;5670715;24;20187;-84
2023/10/06 15:12:02;;;;;;;4.20;2.70;;;15.90;85.40;;;;;;5649906;24;20290;-85
2023/10/06 15:16:22;;;;;;;4.23;2.57;;;15.90;87.60;;;;;;5618874;24;20182;-84
2023/10/06 16:07:24;;;;;;;10.13;3.13;;;15.70;91.40;;;;;;5809060;24;20678;-87
2023/10/06 16:27:57;;;;;;;7.20;3.07;;;15.30;94.10;;;;;;5797770;24;20479;-83
2023/10/06 18:14:38;;;;;;;6.03;5.17;;;14.70;99.90;;;;;;5768884;24;20519;-86
2023/10/06 18:44:54;;;;;;;7.07;5.17;;;14.70;99.90;;;;;;5757395;24;20202;-83
2023/10/06 19:10:02;;;;;;;9.93;6.47;;;14.70;99.90;;;;;;5734733;24;20253;-89
2023/10/06 19:30:04;;;;;;;7.10;5.50;;;14.70;99.90;;;;;;5752736;24;20256;-86
2023/10/06 20:05:45;;;;;;;7.13;5.83;;;14.70;99.90;;;;;;5733554;24;20217;-84
2023/10/06 20:26:18;;;;;;;8.40;5.67;;;14.60;99.90;;;;;;5861906;24;20228;-85
2023/10/06 20:46:15;;;;;;;7.47;5.63;;;14.70;99.90;;;;;;5596544;25;21205;-86
2023/10/06 21:27:11;;;;;;;8.67;6.80;;;14.20;99.90;;;;;;5715193;24;20351;-88
2023/10/06 21:52:12;;;;;;;8.23;7.30;;;13.90;99.90;;;;;;5887983;24;20279;-84
2023/10/06 22:12:18;;;;;;;12.27;8.77;;;13.90;99.90;;;;;;5806831;24;20209;-90
2023/10/06 22:37:56;;;;;;;11.00;7.60;;;13.70;99.90;;;;;;5967159;23;20168;-87
2023/10/06 22:58:28;;;;;;;8.67;6.77;;;13.90;99.90;;;;;;6065763;23;20238;-82
2023/10/06 23:18:49;;;;;;;9.63;6.20;;;14.20;99.90;;;;;;5659081;25;20192;-86
2023/10/06 23:44:06;;;;;;;6.20;4.90;;;14.30;99.90;;;;;;5686541;24;20417;-85
